Time;durP1;ratioP1;P1;durP2;ratioP2;P2;SDS_P1;SDS_P2;PMS_P1;PMS_P2;Temp;Humidity;BMP_temperature;BMP_pressure;BME280_temperature;BME280_humidity;BME280_pressure;Samples;Min_cycle;Max_cycle;Signal;HPM_P1;HPM_P2
2021/12/30 00:01:58;;;;;;;54.23;31.50;;;;;;;8.00;100.00;98681.00;5072113;28;20282;-60
2021/12/30 00:04:26;;;;;;;43.97;28.40;;;;;;;8.09;100.00;98694.53;5072194;28;20210;-61
2021/12/30 00:06:53;;;;;;;43.37;28.40;;;;;;;8.15;100.00;98689.16;5072195;28;20196;-59
2021/12/30 00:09:20;;;;;;;46.00;28.07;;;;;;;8.16;100.00;98691.69;5072086;28;20206;-61
2021/12/30 00:11:49;;;;;;;36.50;23.87;;;;;;;8.18;100.00;98696.81;5071873;28;20220;-59
2021/12/30 00:14:16;;;;;;;32.47;23.23;;;;;;;8.17;100.00;98693.38;5071885;28;20202;-60
2021/12/30 00:16:42;;;;;;;32.07;21.73;;;;;;;8.21;100.00;98700.16;5072397;28;20338;-60
2021/12/30 00:19:09;;;;;;;27.63;19.57;;;;;;;8.23;100.00;98698.38;5072286;28;20279;-60
2021/12/30 00:21:36;;;;;;;25.13;18.27;;;;;;;8.26;100.00;98697.41;5071798;28;20196;-60
2021/12/30 00:24:04;;;;;;;24.93;17.33;;;;;;;8.28;100.00;98693.03;5071745;28;20200;-59
2021/12/30 00:26:31;;;;;;;18.63;15.43;;;;;;;8.25;100.00;98696.56;5071749;28;20657;-59
2021/12/30 00:28:59;;;;;;;18.37;14.00;;;;;;;8.27;100.00;98701.69;5071575;28;20283;-61
2021/12/30 00:31:26;;;;;;;15.77;13.13;;;;;;;8.32;100.00;98695.50;5071735;28;20220;-61
2021/12/30 00:33:53;;;;;;;14.73;11.67;;;;;;;8.32;100.00;98699.84;5071609;28;20199;-60
2021/12/30 00:36:20;;;;;;;13.20;10.77;;;;;;;8.32;100.00;98698.09;5071556;28;20223;-61
2021/12/30 00:38:48;;;;;;;11.77;9.83;;;;;;;8.33;100.00;98704.13;5071471;28;20206;-60
2021/12/30 00:41:15;;;;;;;13.80;9.77;;;;;;;8.34;100.00;98698.03;5071466;28;20196;-61
2021/12/30 00:43:42;;;;;;;10.73;9.33;;;;;;;8.32;100.00;98695.50;5071817;28;20584;-60
2021/12/30 00:46:10;;;;;;;9.93;8.77;;;;;;;8.42;100.00;98697.78;5071470;28;20275;-59
2021/12/30 00:48:38;;;;;;;10.80;9.40;;;;;;;8.23;100.00;98672.50;5071375;28;20204;-60
2021/12/30 00:51:07;;;;;;;11.20;8.93;;;;;;;8.41;100.00;98706.44;5071250;28;20291;-60
2021/12/30 00:53:34;;;;;;;11.70;9.23;;;;;;;8.49;100.00;98704.44;5070223;28;20735;-60
2021/12/30 00:56:01;;;;;;;10.30;9.23;;;;;;;8.48;100.00;98697.56;5071055;28;20239;-61
2021/12/30 00:58:28;;;;;;;9.70;8.70;;;;;;;8.53;100.00;98703.44;5071175;28;20697;-60
2021/12/30 01:00:55;;;;;;;9.77;8.87;;;;;;;8.38;100.00;98690.13;5070842;28;20283;-60
2021/12/30 01:03:24;;;;;;;9.90;8.87;;;;;;;8.53;100.00;98706.03;5071022;28;20200;-61
2021/12/30 01:05:51;;;;;;;9.87;8.87;;;;;;;8.60;100.00;98707.50;5070877;28;20196;-59
2021/12/30 01:08:19;;;;;;;9.27;8.37;;;;;;;8.60;100.00;98702.31;5071088;28;20632;-60
2021/12/30 01:10:46;;;;;;;8.63;7.73;;;;;;;8.56;100.00;98701.63;5071079;28;20196;-60
2021/12/30 01:13:20;;;;;;;9.47;7.93;;;;;;;8.47;100.00;98685.53;5071036;28;20303;-60
2021/12/30 01:15:56;;;;;;;8.00;7.20;;;;;;;8.66;100.00;98713.34;5070990;28;20192;-60
2021/12/30 01:18:33;;;;;;;7.30;6.70;;;;;;;8.64;100.00;98694.44;5070839;28;20199;-59
2021/12/30 01:21:00;;;;;;;8.47;7.07;;;;;;;8.67;100.00;98706.41;5070676;28;20198;-60
2021/12/30 01:23:28;;;;;;;7.00;6.40;;;;;;;8.66;100.00;98707.31;5070561;28;20191;-60
2021/12/30 01:25:56;;;;;;;7.83;7.13;;;;;;;8.62;100.00;98698.81;5070443;28;20287;-60
2021/12/30 01:28:23;;;;;;;7.60;6.90;;;;;;;8.62;100.00;98708.31;5070591;28;20203;-60
2021/12/30 01:30:51;;;;;;;5.97;5.57;;;;;;;8.68;100.00;98708.13;5070431;28;20506;-59
2021/12/30 01:33:18;;;;;;;6.47;5.97;;;;;;;8.62;100.00;98706.56;5070473;28;20219;-60
2021/12/30 01:35:46;;;;;;;5.60;5.20;;;;;;;8.57;100.00;98702.47;5070460;28;20804;-60
2021/12/30 01:38:16;;;;;;;6.60;6.10;;;;;;;8.61;100.00;98717.81;5070411;28;20228;-59
2021/12/30 01:40:45;;;;;;;6.93;6.23;;;;;;;8.57;100.00;98707.63;5070389;28;20672;-59
2021/12/30 01:43:13;;;;;;;6.67;6.17;;;;;;;8.64;100.00;98720.28;5070298;28;20220;-59
2021/12/30 01:45:42;;;;;;;6.33;5.83;;;;;;;8.62;100.00;98716.06;5070113;28;20287;-59
2021/12/30 01:48:10;;;;;;;5.70;5.30;;;;;;;8.60;100.00;98725.59;5070312;28;20203;-60
2021/12/30 01:50:37;;;;;;;6.07;5.57;;;;;;;8.68;100.00;98729.66;5070166;28;20287;-59
2021/12/30 01:53:06;;;;;;;6.37;5.77;;;;;;;8.66;100.00;98728.84;5070022;28;20230;-58
2021/12/30 01:55:35;;;;;;;6.50;5.97;;;;;;;8.69;100.00;98730.50;5070182;28;20200;-60
2021/12/30 01:58:03;;;;;;;5.57;5.07;;;;;;;8.65;100.00;98728.91;5070402;28;20286;-60
2021/12/30 02:00:32;;;;;;;6.37;5.77;;;;;;;8.65;100.00;98734.91;5070205;28;20646;-59
2021/12/30 02:03:00;;;;;;;6.03;5.53;;;;;;;8.62;100.00;98736.75;5070109;28;20255;-60
2021/12/30 02:05:28;;;;;;;5.07;4.67;;;;;;;8.73;100.00;98742.41;5070060;28;20647;-59
2021/12/30 02:07:55;;;;;;;5.47;5.00;;;;;;;8.69;100.00;98744.25;5070011;28;20207;-59
2021/12/30 02:10:24;;;;;;;5.00;4.60;;;;;;;8.62;100.00;98736.75;5069973;28;20691;-60
2021/12/30 02:12:52;;;;;;;5.10;4.70;;;;;;;8.68;100.00;98747.75;5069801;28;20216;-59
2021/12/30 02:15:20;;;;;;;5.57;5.17;;;;;;;8.65;100.00;98747.84;5070199;28;20227;-59
2021/12/30 02:17:49;;;;;;;4.63;4.33;;;;;;;8.76;100.00;98757.00;5070201;28;20200;-60
2021/12/30 02:20:41;;;;;;;5.57;5.17;;;;;;;8.65;100.00;98759.94;5069820;28;20200;-60
2021/12/30 02:23:08;;;;;;;5.17;4.77;;;;;;;8.77;100.00;98763.88;5069655;28;20196;-59
2021/12/30 02:25:35;;;;;;;4.60;4.30;;;;;;;8.74;100.00;98757.88;5069862;28;20206;-60
2021/12/30 02:28:07;;;;;;;5.43;5.03;;;;;;;8.41;100.00;98712.44;5070006;28;20264;-59
2021/12/30 02:30:34;;;;;;;4.73;4.33;;;;;;;8.69;100.00;98764.94;5069975;28;20428;-60
2021/12/30 02:33:02;;;;;;;4.70;4.30;;;;;;;8.69;100.00;98764.13;5069560;28;20230;-59
2021/12/30 02:35:31;;;;;;;4.70;4.40;;;;;;;8.69;100.00;98764.94;5069388;28;20232;-60
2021/12/30 02:38:00;;;;;;;4.43;4.13;;;;;;;8.66;100.00;98765.06;5069584;28;20196;-59
2021/12/30 02:40:28;;;;;;;4.53;4.13;;;;;;;8.63;100.00;98774.66;5069787;28;20309;-60
2021/12/30 02:42:55;;;;;;;5.13;4.73;;;;;;;8.57;100.00;98774.88;5069707;28;20284;-59
2021/12/30 02:45:22;;;;;;;4.77;4.47;;;;;;;8.60;100.00;98785.09;5069808;28;20196;-60
2021/12/30 02:47:49;;;;;;;4.90;4.53;;;;;;;8.62;100.00;98784.16;5069746;28;20225;-60
2021/12/30 02:50:16;;;;;;;4.90;4.50;;;;;;;8.55;100.00;98776.66;5069929;28;20199;-60
2021/12/30 02:52:43;;;;;;;4.77;4.40;;;;;;;8.52;100.00;98782.78;5069740;28;20234;-60
2021/12/30 02:55:12;;;;;;;4.90;4.50;;;;;;;8.55;100.00;98792.19;5069477;28;20283;-60
2021/12/30 02:57:39;;;;;;;4.50;4.20;;;;;;;8.56;100.00;98794.72;5069506;28;20283;-60
2021/12/30 03:00:10;;;;;;;4.97;4.57;;;;;;;8.54;100.00;98804.25;5069420;28;20338;-61
2021/12/30 03:02:37;;;;;;;4.80;4.40;;;;;;;8.57;100.00;98798.16;5069300;28;20196;-60
2021/12/30 03:05:07;;;;;;;4.80;4.40;;;;;;;8.64;100.00;98803.06;5069423;28;20231;-60
2021/12/30 03:07:34;;;;;;;4.13;3.83;;;;;;;8.57;100.00;98793.81;5069475;28;20287;-61
2021/12/30 03:10:01;;;;;;;4.13;3.83;;;;;;;8.64;100.00;98804.81;5069467;28;20687;-61
2021/12/30 03:12:30;;;;;;;3.93;3.67;;;;;;;8.68;100.00;98814.19;5069410;28;20270;-60
2021/12/30 03:14:58;;;;;;;4.17;3.93;;;;;;;8.61;100.00;98812.66;5069534;28;20261;-59
2021/12/30 03:17:25;;;;;;;4.10;3.80;;;;;;;8.59;100.00;98819.63;5071705;28;20261;-60
2021/12/30 03:19:56;;;;;;;4.57;4.17;;;;;;;8.62;100.00;98822.13;5073273;28;20198;-60
2021/12/30 03:22:23;;;;;;;3.83;3.53;;;;;;;8.56;100.00;98823.19;5073459;28;20637;-59
2021/12/30 03:24:50;;;;;;;3.80;3.50;;;;;;;8.58;100.00;98826.53;5073143;28;20203;-60
2021/12/30 03:27:17;;;;;;;3.80;3.60;;;;;;;8.57;100.00;98824.88;5072928;28;20204;-59
2021/12/30 03:29:45;;;;;;;4.30;4.00;;;;;;;8.61;100.00;98834.19;5072919;28;20583;-60
2021/12/30 03:32:12;;;;;;;4.00;3.70;;;;;;;8.22;100.00;98779.38;5072659;28;20196;-61
2021/12/30 03:34:39;;;;;;;3.80;3.60;;;;;;;8.56;100.00;98836.09;5072913;28;20591;-59
2021/12/30 03:37:06;;;;;;;4.10;3.80;;;;;;;8.50;100.00;98841.44;5072716;28;20238;-60
2021/12/30 03:39:33;;;;;;;4.00;3.70;;;;;;;8.56;100.00;98840.44;5072694;28;20202;-59
2021/12/30 03:42:00;;;;;;;3.87;3.47;;;;;;;8.45;100.00;98848.53;5072440;28;20291;-60
2021/12/30 03:44:27;;;;;;;3.83;3.53;;;;;;;8.47;100.00;98836.38;5072761;28;20283;-60
2021/12/30 03:46:56;;;;;;;4.60;4.07;;;;;;;8.49;100.00;98850.09;5072742;28;20287;-60
2021/12/30 03:49:23;;;;;;;4.93;4.43;;;;;;;8.45;100.00;98851.09;5073005;28;20191;-58
2021/12/30 03:51:52;;;;;;;4.63;4.33;;;;;;;8.31;100.00;98840.31;5072509;28;20228;-60
2021/12/30 03:54:20;;;;;;;4.30;4.00;;;;;;;8.43;100.00;98859.81;5072319;28;20231;-60
2021/12/30 03:56:47;;;;;;;4.80;4.37;;;;;;;8.42;100.00;98855.53;5072387;28;20287;-59
2021/12/30 03:59:15;;;;;;;4.73;4.27;;;;;;;8.43;100.00;98858.06;5072505;28;20196;-61
2021/12/30 04:01:42;;;;;;;5.00;4.60;;;;;;;8.41;100.00;98865.00;5071380;28;20195;-60
2021/12/30 04:04:10;;;;;;;4.47;4.17;;;;;;;8.31;100.00;98863.56;5071647;28;20211;-60
2021/12/30 04:06:37;;;;;;;5.10;4.60;;;;;;;8.37;100.00;98866.00;5071907;28;20204;-60
2021/12/30 04:09:06;;;;;;;5.10;4.63;;;;;;;8.33;100.00;98869.59;5071296;28;20204;-59
2021/12/30 04:11:35;;;;;;;4.90;4.50;;;;;;;8.28;100.00;98879.16;5070738;28;20195;-61
2021/12/30 04:14:03;;;;;;;8.43;5.10;;;;;;;8.22;100.00;98880.22;5070641;28;20242;-58
2021/12/30 04:16:30;;;;;;;5.63;5.23;;;;;;;8.22;100.00;98890.53;5068328;28;20188;-60
2021/12/30 04:18:57;;;;;;;5.70;5.20;;;;;;;8.19;100.00;98898.38;5071010;28;20716;-59
2021/12/30 04:21:25;;;;;;;5.53;5.13;;;;;;;8.18;100.00;98901.84;5070686;28;20196;-60
2021/12/30 04:23:53;;;;;;;5.70;5.20;;;;;;;8.09;100.00;98886.63;5068075;28;20591;-60
2021/12/30 04:26:20;;;;;;;4.73;4.33;;;;;;;8.06;100.00;98891.88;5068018;28;20292;-60
2021/12/30 04:28:47;;;;;;;4.70;4.30;;;;;;;8.19;100.00;98913.03;5069606;28;20200;-59
2021/12/30 04:31:14;;;;;;;4.93;4.60;;;;;;;8.20;100.00;98914.75;5067659;28;20196;-59
2021/12/30 04:33:42;;;;;;;4.77;4.47;;;;;;;8.09;100.00;98927.97;5070566;28;20222;-60
2021/12/30 04:36:09;;;;;;;4.67;4.37;;;;;;;8.07;100.00;98918.56;5070118;28;20238;-60
2021/12/30 04:38:38;;;;;;;5.20;4.80;;;;;;;8.17;100.00;98920.84;5067848;28;20190;-59
2021/12/30 04:41:06;;;;;;;4.90;4.60;;;;;;;8.22;100.00;98928.47;5070234;28;20198;-59
2021/12/30 04:43:33;;;;;;;5.00;4.60;;;;;;;8.19;100.00;98928.56;5070488;28;20195;-59
2021/12/30 04:46:02;;;;;;;4.63;4.23;;;;;;;8.22;100.00;98942.25;5066976;28;20216;-59
2021/12/30 04:48:29;;;;;;;4.73;4.30;;;;;;;8.23;100.00;98948.28;5069381;28;20216;-58
2021/12/30 04:50:56;;;;;;;5.50;5.00;;;;;;;8.21;100.00;98950.91;5070553;28;20711;-60
2021/12/30 04:53:23;;;;;;;4.77;4.40;;;;;;;8.16;100.00;98954.47;5070900;28;20227;-60
2021/12/30 04:55:52;;;;;;;4.27;3.97;;;;;;;8.14;100.00;98964.84;5070736;28;20314;-61
2021/12/30 04:58:19;;;;;;;4.70;4.40;;;;;;;8.11;100.00;98966.72;5070658;28;20226;-60
2021/12/30 05:00:46;;;;;;;5.13;4.73;;;;;;;8.15;100.00;98968.28;5070606;28;20319;-60
2021/12/30 05:03:14;;;;;;;4.40;4.00;;;;;;;8.14;100.00;98971.75;5070433;28;20223;-59
2021/12/30 05:05:43;;;;;;;4.23;3.90;;;;;;;8.16;100.00;98975.16;5069793;28;20269;-61
2021/12/30 05:08:10;;;;;;;4.20;3.90;;;;;;;8.14;100.00;98984.69;5070617;28;20628;-62
2021/12/30 05:10:38;;;;;;;4.63;4.33;;;;;;;8.12;100.00;98986.50;5070413;28;20234;-61
2021/12/30 05:13:07;;;;;;;8.43;4.13;;;;;;;8.13;100.00;98988.16;5070229;28;20382;-59
2021/12/30 05:15:34;;;;;;;4.37;3.93;;;;;;;8.17;100.00;98992.38;5070342;28;20795;-58
2021/12/30 05:18:02;;;;;;;4.33;3.60;;;;;;;8.15;100.00;99000.16;5069537;28;20216;-60
2021/12/30 05:20:29;;;;;;;4.27;3.97;;;;;;;8.10;100.00;99004.63;5068684;28;20224;-59
2021/12/30 05:22:56;;;;;;;4.77;4.37;;;;;;;8.03;100.00;99010.81;5069795;28;20234;-60
2021/12/30 05:25:23;;;;;;;4.10;3.80;;;;;;;8.04;100.00;99007.34;5070436;28;20697;-60
2021/12/30 05:27:50;;;;;;;3.40;3.20;;;;;;;7.99;100.00;99020.41;5069887;28;20218;-59
2021/12/30 05:30:21;;;;;;;4.00;3.60;;;;;;;8.03;100.00;99016.84;5070062;28;20224;-59
2021/12/30 05:32:48;;;;;;;4.43;3.63;;;;;;;7.83;100.00;98989.84;5069501;28;20212;-59
2021/12/30 05:35:15;;;;;;;4.13;3.73;;;;;;;7.79;100.00;99027.00;5069190;28;20235;-60
2021/12/30 05:37:43;;;;;;;3.67;3.37;;;;;;;7.83;100.00;99023.44;5069616;28;20216;-60
2021/12/30 05:40:12;;;;;;;3.80;3.50;;;;;;;7.76;100.00;99025.31;5069326;28;20310;-60
2021/12/30 05:42:39;;;;;;;3.67;3.43;;;;;;;7.83;100.00;99032.03;5069579;28;20242;-59
2021/12/30 05:45:08;;;;;;;4.10;3.20;;;;;;;7.85;100.00;99035.44;5069731;28;20601;-59
2021/12/30 05:47:36;;;;;;;3.53;3.20;;;;;;;7.76;100.00;99046.00;5069536;28;20224;-60
2021/12/30 05:50:06;;;;;;;3.17;2.97;;;;;;;7.78;100.00;99043.38;5069257;28;20224;-60
2021/12/30 05:52:33;;;;;;;3.30;3.10;;;;;;;7.55;100.00;99018.97;5069741;28;20730;-59
2021/12/30 05:55:00;;;;;;;2.90;2.70;;;;;;;7.77;100.00;99054.59;5069519;28;20234;-60
2021/12/30 05:57:27;;;;;;;2.60;2.40;;;;;;;7.79;100.00;99069.16;5070048;28;20246;-60
2021/12/30 05:59:54;;;;;;;3.07;2.83;;;;;;;7.77;100.00;99073.53;5069401;28;20799;-61
2021/12/30 06:02:21;;;;;;;2.93;2.73;;;;;;;7.80;100.00;99072.56;5069524;28;20255;-60
2021/12/30 06:04:49;;;;;;;3.10;2.90;;;;;;;7.80;100.00;99076.00;5068652;28;20535;-59
2021/12/30 06:07:16;;;;;;;3.83;3.53;;;;;;;7.93;100.00;99079.16;5069344;28;20220;-60
2021/12/30 06:09:43;;;;;;;3.10;2.90;;;;;;;7.85;100.00;99089.69;5068943;28;20226;-60
2021/12/30 06:12:10;;;;;;;3.20;3.00;;;;;;;7.86;100.00;99101.72;5069390;28;20225;-60
2021/12/30 06:14:37;;;;;;;5.20;4.80;;;;;;;7.75;100.00;99110.59;5068967;28;20234;-60
2021/12/30 06:17:04;;;;;;;4.00;3.70;;;;;;;7.78;100.00;99108.81;5069530;28;20537;-60
2021/12/30 06:19:31;;;;;;;4.10;3.70;;;;;;;7.81;100.00;99125.94;5068823;28;20617;-60
2021/12/30 06:21:59;;;;;;;3.63;3.33;;;;;;;7.82;100.00;99125.06;5069175;28;20226;-60
2021/12/30 06:24:26;;;;;;;4.17;3.87;;;;;;;7.95;100.00;99131.66;5069274;28;20270;-60
2021/12/30 06:26:53;;;;;;;3.93;3.63;;;;;;;7.98;100.00;99150.50;5069140;28;20216;-60
2021/12/30 06:29:20;;;;;;;4.87;4.50;;;;;;;8.02;100.00;99152.13;5069206;28;20731;-60
2021/12/30 06:31:47;;;;;;;3.80;3.30;;;;;;;7.96;100.00;99156.59;5069140;28;20227;-60
2021/12/30 06:34:14;;;;;;;7.47;3.50;;;;;;;8.03;100.00;99151.25;5065866;28;20234;-58
2021/12/30 06:36:41;;;;;;;19.77;5.27;;;;;;;7.89;100.00;99165.41;5066241;28;20751;-61
2021/12/30 06:39:10;;;;;;;7.50;3.87;;;;;;;7.90;100.00;99173.09;5056194;28;20765;-61
2021/12/30 06:41:37;;;;;;;9.30;5.30;;;;;;;8.00;100.00;99174.59;5068954;28;20219;-60
2021/12/30 06:44:04;;;;;;;6.90;4.17;;;;;;;7.89;100.00;99181.75;5068180;28;20208;-61
2021/12/30 06:46:31;;;;;;;5.27;4.87;;;;;;;7.90;100.00;99177.44;5067909;28;20311;-60
2021/12/30 06:48:59;;;;;;;5.73;4.00;;;;;;;7.96;100.00;99180.72;5068142;28;20224;-59
2021/12/30 06:51:27;;;;;;;3.67;3.37;;;;;;;7.89;100.00;99179.16;5069686;28;20639;-59
2021/12/30 06:53:56;;;;;;;3.00;2.80;;;;;;;7.93;100.00;99193.69;5072568;28;20335;-60
2021/12/30 06:56:24;;;;;;;3.43;3.13;;;;;;;7.91;100.00;99192.03;5071299;28;20262;-59
2021/12/30 06:58:52;;;;;;;3.87;3.50;;;;;;;7.99;100.00;99215.97;5069591;28;20762;-59
2021/12/30 07:01:19;;;;;;;3.70;3.40;;;;;;;8.06;100.00;99216.66;5072828;28;20220;-59
2021/12/30 07:03:46;;;;;;;3.40;3.10;;;;;;;8.07;100.00;99218.38;5072078;28;20771;-60
2021/12/30 07:06:13;;;;;;;4.43;4.03;;;;;;;7.88;100.00;99213.63;5073612;28;20391;-59
2021/12/30 07:08:41;;;;;;;5.30;4.90;;;;;;;7.97;100.00;99231.50;5072544;28;20227;-59
2021/12/30 07:11:08;;;;;;;4.27;3.87;;;;;;;7.99;100.00;99224.59;5073000;28;20723;-59
2021/12/30 07:13:36;;;;;;;6.73;4.20;;;;;;;8.03;100.00;99233.09;5072531;28;20780;-59
2021/12/30 07:16:04;;;;;;;6.27;5.40;;;;;;;8.11;100.00;99240.69;5072525;28;20598;-61
2021/12/30 07:18:31;;;;;;;91.73;11.53;;;;;;;8.01;100.00;99240.88;5071820;28;20222;-60
2021/12/30 07:20:58;;;;;;;35.47;7.60;;;;;;;8.06;100.00;99250.28;5072576;28;20282;-59
2021/12/30 07:23:25;;;;;;;5.87;4.43;;;;;;;8.10;100.00;99252.75;5072915;28;20223;-59
2021/12/30 07:25:52;;;;;;;5.13;4.00;;;;;;;8.19;100.00;99252.53;5072364;28;20737;-61
2021/12/30 07:28:19;;;;;;;4.47;4.00;;;;;;;8.12;100.00;99263.06;5072455;28;20224;-60
2021/12/30 07:30:48;;;;;;;5.20;4.63;;;;;;;8.11;100.00;99261.38;5072161;28;20767;-60
2021/12/30 07:33:15;;;;;;;5.13;4.50;;;;;;;8.13;100.00;99273.34;5072223;28;20668;-60
2021/12/30 07:35:42;;;;;;;4.27;3.97;;;;;;;8.02;100.00;99273.59;5071501;28;20236;-59
2021/12/30 07:38:09;;;;;;;4.30;3.63;;;;;;;7.97;100.00;99280.63;5071950;28;20226;-63
2021/12/30 07:40:35;;;;;;;4.63;4.23;;;;;;;8.07;100.00;99280.41;5071926;28;20223;-64
2021/12/30 07:43:03;;;;;;;4.10;3.80;;;;;;;7.97;100.00;99279.75;5072198;28;20628;-60
2021/12/30 07:45:31;;;;;;;4.07;3.77;;;;;;;8.11;100.00;99290.66;5071949;28;20224;-58
2021/12/30 07:47:59;;;;;;;3.47;3.17;;;;;;;8.01;100.00;99294.31;5071640;28;20234;-61
2021/12/30 07:50:27;;;;;;;4.60;3.67;;;;;;;7.73;100.00;99269.94;5071848;28;20310;-59
2021/12/30 07:52:54;;;;;;;3.97;3.63;;;;;;;7.96;100.00;99303.91;5072115;28;20226;-59
2021/12/30 07:55:21;;;;;;;5.70;4.80;;;;;;;8.10;100.00;99304.47;5071819;28;20636;-59
2021/12/30 07:57:48;;;;;;;20.47;6.27;;;;;;;8.04;100.00;99289.06;5071840;28;20587;-59
2021/12/30 08:00:18;;;;;;;14.90;5.43;;;;;;;8.18;100.00;99314.63;5071808;28;20303;-59
2021/12/30 08:02:45;;;;;;;4.63;3.97;;;;;;;8.32;100.00;99322.97;5070747;28;20224;-60
2021/12/30 08:05:15;;;;;;;4.60;4.13;;;;;;;8.41;100.00;99307.22;5071547;28;20222;-60
2021/12/30 08:07:45;;;;;;;3.67;3.47;;;;;;;8.40;100.00;99304.66;5071760;28;20695;-59
2021/12/30 08:10:14;;;;;;;5.63;4.00;;;;;;;8.55;100.00;99325.00;5071358;28;20220;-58
2021/12/30 08:12:42;;;;;;;4.70;4.10;;;;;;;8.72;100.00;99328.88;5071740;28;20588;-62
2021/12/30 08:15:10;;;;;;;5.50;4.10;;;;;;;8.90;100.00;99337.09;5071382;28;20228;-61
2021/12/30 08:17:37;;;;;;;5.50;4.40;;;;;;;8.94;100.00;99343.88;5070857;28;20224;-61
2021/12/30 08:20:07;;;;;;;6.00;4.30;;;;;;;8.85;100.00;99321.66;5071373;28;20235;-62
2021/12/30 08:22:35;;;;;;;4.83;3.60;;;;;;;8.81;100.00;99321.78;5071438;28;20224;-61
2021/12/30 08:25:03;;;;;;;4.33;3.93;;;;;;;8.99;100.00;99348.06;5071214;28;20216;-61
2021/12/30 08:27:30;;;;;;;6.87;4.00;;;;;;;8.98;100.00;99351.53;5071181;28;20408;-59
2021/12/30 08:29:57;;;;;;;4.00;3.70;;;;;;;8.92;100.00;99353.41;5071201;28;20230;-61
2021/12/30 08:32:24;;;;;;;3.97;3.60;;;;;;;8.94;100.00;99354.22;5070629;28;20604;-61
2021/12/30 08:34:51;;;;;;;4.87;3.80;;;;;;;8.90;100.00;99353.47;5071045;28;20238;-63
2021/12/30 08:37:18;;;;;;;4.20;3.80;;;;;;;8.87;100.00;99353.53;5071134;28;20303;-61
2021/12/30 08:39:47;;;;;;;4.80;4.23;;;;;;;8.90;100.00;99366.41;5070837;28;20238;-62
2021/12/30 08:42:19;;;;;;;4.00;3.70;;;;;;;8.87;100.00;99370.81;5071034;28;20219;-61
2021/12/30 08:44:46;;;;;;;6.30;4.30;;;;;;;9.03;100.00;99364.34;5070788;28;20303;-62
2021/12/30 08:47:14;;;;;;;3.87;3.50;;;;;;;9.08;100.00;99371.13;5070567;28;20211;-60
2021/12/30 08:49:44;;;;;;;4.17;3.87;;;;;;;9.10;100.00;99373.69;5070934;28;20226;-60
2021/12/30 08:52:11;;;;;;;6.43;4.30;;;;;;;9.06;100.00;99369.47;5070992;28;20787;-61
2021/12/30 08:54:38;;;;;;;9.00;4.40;;;;;;;9.06;100.00;99365.13;5070730;28;20715;-62
2021/12/30 08:57:07;;;;;;;6.73;3.57;;;;;;;8.94;100.00;99364.59;5070830;28;20223;-61
2021/12/30 08:59:36;;;;;;;4.10;3.70;;;;;;;8.85;100.00;99364.81;5070486;28;20311;-59
2021/12/30 09:02:04;;;;;;;4.03;3.57;;;;;;;9.01;100.00;99379.09;5070036;28;20684;-60
2021/12/30 09:04:31;;;;;;;4.30;3.90;;;;;;;9.07;100.00;99384.97;5070440;28;20312;-59
2021/12/30 09:06:58;;;;;;;3.97;3.57;;;;;;;8.98;100.00;99355.88;5070374;28;20220;-60
2021/12/30 09:09:25;;;;;;;9.33;5.07;;;;;;;9.11;100.00;99383.16;5069931;28;20682;-60
2021/12/30 09:11:53;;;;;;;8.57;3.90;;;;;;;9.10;100.00;99386.63;5070206;28;20303;-59
2021/12/30 09:14:21;;;;;;;6.17;3.80;;;;;;;9.20;100.00;99393.28;5069833;28;20647;-60
2021/12/30 09:16:49;;;;;;;11.67;5.10;;;;;;;9.34;100.00;99390.34;5069502;28;20216;-60
2021/12/30 09:19:16;;;;;;;4.37;3.87;;;;;;;9.33;100.00;99405.03;5070591;28;20223;-59
2021/12/30 09:21:44;;;;;;;4.97;3.80;;;;;;;9.33;100.00;99397.25;5070056;28;20251;-59
2021/12/30 09:24:12;;;;;;;5.50;3.87;;;;;;;9.36;100.00;99389.41;5068955;28;20302;-59
2021/12/30 09:26:40;;;;;;;6.13;4.77;;;;;;;9.50;100.00;99408.91;5070746;28;20666;-59
2021/12/30 09:29:10;;;;;;;17.17;4.27;;;;;;;9.51;100.00;99398.50;5070562;28;20276;-60
2021/12/30 09:31:40;;;;;;;8.10;4.40;;;;;;;9.55;100.00;99404.47;5070688;28;20210;-58
2021/12/30 09:34:07;;;;;;;3.77;3.47;;;;;;;9.61;100.00;99404.28;5070311;28;20223;-59
2021/12/30 09:36:35;;;;;;;5.43;4.47;;;;;;;9.57;100.00;99397.50;5070225;28;20259;-59
2021/12/30 09:39:02;;;;;;;5.60;3.30;;;;;;;9.48;100.00;99391.66;5070644;28;20279;-58
2021/12/30 09:41:29;;;;;;;4.50;3.20;;;;;;;9.69;100.00;99404.97;5070679;28;20626;-59
2021/12/30 09:43:55;;;;;;;15.17;5.80;;;;;;;9.43;100.00;99416.00;5070263;28;20192;-60
2021/12/30 09:46:23;;;;;;;8.37;4.23;;;;;;;9.49;100.00;99410.66;5070100;28;20603;-61
2021/12/30 09:48:51;;;;;;;13.70;5.17;;;;;;;9.55;100.00;99404.47;5070313;28;20714;-60
2021/12/30 09:51:20;;;;;;;8.20;4.13;;;;;;;9.54;100.00;99410.53;5070285;28;20206;-60
2021/12/30 09:53:50;;;;;;;6.43;4.43;;;;;;;9.52;100.00;99409.72;5070314;28;20192;-60
2021/12/30 09:56:17;;;;;;;4.33;3.60;;;;;;;9.36;100.00;99397.19;5070063;28;20235;-59
2021/12/30 09:58:44;;;;;;;7.33;3.70;;;;;;;9.55;100.00;99415.69;5070124;28;20219;-60
2021/12/30 10:01:12;;;;;;;7.67;3.73;;;;;;;9.62;100.00;99413.78;5069917;28;20203;-60
2021/12/30 10:03:39;;;;;;;3.83;3.53;;;;;;;9.56;100.00;99419.13;5070032;28;20654;-59
2021/12/30 10:06:09;;;;;;;6.93;4.10;;;;;;;9.48;100.00;99414.97;5070142;28;20676;-59
2021/12/30 10:08:41;;;;;;;4.60;4.20;;;;;;;9.30;100.00;99420.63;5069980;28;20203;-60
2021/12/30 10:11:13;;;;;;;5.20;3.83;;;;;;;9.41;100.00;99423.81;5069906;28;20274;-60
2021/12/30 10:13:50;;;;;;;4.87;4.10;;;;;;;9.43;100.00;99427.22;5070055;28;20231;-59
2021/12/30 10:16:17;;;;;;;6.70;4.57;;;;;;;9.30;100.00;99415.47;5060956;28;20740;-59
2021/12/30 10:18:47;;;;;;;19.00;5.30;;;;;;;9.38;100.00;99426.47;5049551;28;20227;-60
2021/12/30 10:21:18;;;;;;;9.97;5.03;;;;;;;9.41;100.00;99433.31;5049343;28;20676;-61
2021/12/30 10:23:47;;;;;;;12.57;4.30;;;;;;;9.28;100.00;99417.22;5049331;28;20228;-61
2021/12/30 10:26:15;;;;;;;18.87;6.03;;;;;;;9.42;100.00;99430.69;5048662;28;20222;-59
2021/12/30 10:28:43;;;;;;;10.60;5.00;;;;;;;9.41;100.00;99433.31;5048995;28;20220;-61
2021/12/30 10:31:24;;;;;;;9.47;4.50;;;;;;;9.44;100.00;99435.84;5049314;28;20693;-62
2021/12/30 10:33:55;;;;;;;5.67;4.47;;;;;;;9.52;100.00;99433.91;5066136;28;20228;-60
2021/12/30 10:36:26;;;;;;;9.87;6.67;;;;;;;9.38;100.00;99444.59;5068982;28;20245;-60
2021/12/30 10:38:54;;;;;;;6.57;5.97;;;;;;;9.34;100.00;99432.63;5069201;28;20251;-62
2021/12/30 10:41:24;;;;;;;6.33;4.80;;;;;;;9.42;100.00;99451.41;5068340;28;20640;-65
2021/12/30 10:43:57;;;;;;;4.30;3.90;;;;;;;9.30;100.00;99440.50;5069721;28;20196;-61
2021/12/30 10:46:26;;;;;;;6.63;5.00;;;;;;;9.30;100.00;99450.88;5069689;28;20245;-61
2021/12/30 10:49:00;;;;;;;5.60;5.03;;;;;;;9.32;100.00;99459.47;5069971;28;20672;-60
2021/12/30 10:51:34;;;;;;;8.10;5.47;;;;;;;9.41;100.00;99456.63;5069494;28;20248;-62
2021/12/30 10:54:14;;;;;;;14.30;11.00;;;;;;;9.43;100.00;99465.22;5069534;28;20294;-61
2021/12/30 10:56:42;;;;;;;8.73;6.93;;;;;;;9.43;100.00;99460.91;5069516;28;20219;-61
2021/12/30 10:59:22;;;;;;;8.60;6.50;;;;;;;9.42;100.00;99463.53;5069407;28;20298;-61
2021/12/30 11:01:52;;;;;;;6.50;4.97;;;;;;;9.48;100.00;99465.13;5069635;28;20192;-61
2021/12/30 11:04:20;;;;;;;5.40;4.40;;;;;;;9.42;100.00;99466.97;5069171;28;20196;-58
2021/12/30 11:06:49;;;;;;;6.30;4.97;;;;;;;9.26;100.00;99444.91;5065441;28;20222;-58
2021/12/30 11:09:21;;;;;;;6.83;6.10;;;;;;;9.37;100.00;99466.22;5068962;28;20629;-59
2021/12/30 11:11:52;;;;;;;6.57;5.10;;;;;;;9.28;100.00;99466.44;5068222;28;20275;-60
2021/12/30 11:14:21;;;;;;;10.13;5.57;;;;;;;9.16;100.00;99471.06;5067764;28;20191;-59
2021/12/30 11:17:16;;;;;;;5.57;4.97;;;;;;;9.25;100.00;99470.88;5067591;28;20238;-59
2021/12/30 11:19:48;;;;;;;4.97;4.07;;;;;;;9.16;100.00;99473.66;5060411;28;20192;-59
2021/12/30 11:22:18;;;;;;;6.00;4.20;;;;;;;9.06;100.00;99475.59;5068155;28;20279;-59
2021/12/30 11:24:47;;;;;;;5.90;5.23;;;;;;;9.02;100.00;99477.44;5065801;28;20196;-59
2021/12/30 11:27:15;;;;;;;9.70;4.20;;;;;;;9.14;100.00;99473.72;5067693;28;20226;-58
2021/12/30 11:29:45;;;;;;;5.23;4.07;;;;;;;9.17;100.00;99478.78;5067865;28;20198;-58
2021/12/30 11:32:15;;;;;;;5.93;4.10;;;;;;;9.27;100.00;99476.84;5067864;28;20203;-60
2021/12/30 11:34:42;;;;;;;8.27;4.63;;;;;;;9.17;100.00;99486.56;5064960;28;20235;-60
2021/12/30 11:37:10;;;;;;;4.67;4.37;;;;;;;9.10;100.00;99480.69;5067805;28;20283;-60